createdAt,value
2023-10-26T00:02:01.286Z,28.25
2023-10-26T00:07:03.655Z,28.88
2023-10-26T00:12:06.403Z,23.83
2023-10-26T00:17:08.992Z,28.17
2023-10-26T00:22:11.328Z,28.67
2023-10-26T00:27:13.670Z,35.40
2023-10-26T00:32:15.932Z,27.23
2023-10-26T00:37:18.185Z,30.73
2023-10-26T00:42:20.497Z,31.92
2023-10-26T00:47:22.767Z,31.77
2023-10-26T00:52:25.317Z,37.05
2023-10-26T00:57:28.733Z,27.67
2023-10-26T01:02:32.118Z,31.35
2023-10-26T01:07:34.663Z,31.95
2023-10-26T01:12:37.146Z,26.83
2023-10-26T01:17:39.438Z,27.92
2023-10-26T01:22:41.709Z,32.00
2023-10-26T01:27:44.042Z,34.72
2023-10-26T01:32:46.466Z,35.55
2023-10-26T01:37:48.726Z,26.25
2023-10-26T01:42:50.968Z,25.10
2023-10-26T01:47:55.960Z,31.40
2023-10-26T01:52:59.153Z,27.35
2023-10-26T01:58:01.443Z,24.48
2023-10-26T02:03:03.769Z,24.88
2023-10-26T02:08:06.239Z,25.25
2023-10-26T02:13:08.818Z,34.58
2023-10-26T02:18:11.070Z,41.60
2023-10-26T02:23:13.312Z,28.73
2023-10-26T02:28:21.053Z,31.25
2023-10-26T02:33:23.335Z,30.35
2023-10-26T02:38:25.629Z,28.42
2023-10-26T02:43:27.885Z,29.90
2023-10-26T02:48:30.285Z,27.63
2023-10-26T02:53:33.067Z,23.00
2023-10-26T02:58:35.694Z,24.85
2023-10-26T03:03:37.994Z,32.05
2023-10-26T03:08:40.260Z,25.70
2023-10-26T03:13:42.570Z,31.52
2023-10-26T03:18:44.894Z,27.90
2023-10-26T03:23:47.251Z,26.45
2023-10-26T03:28:53.434Z,22.40
2023-10-26T03:33:55.763Z,34.00
2023-10-26T03:38:58.095Z,30.80
2023-10-26T03:44:00.473Z,31.77
2023-10-26T03:49:02.673Z,26.73
2023-10-26T03:54:05.092Z,40.92
2023-10-26T03:59:07.502Z,28.73
2023-10-26T04:04:09.981Z,44.85
2023-10-26T04:09:12.296Z,43.15
2023-10-26T04:14:14.661Z,32.25
2023-10-26T04:19:17.021Z,27.40
2023-10-26T04:24:19.510Z,29.85
2023-10-26T04:29:21.818Z,35.30
2023-10-26T04:34:24.346Z,45.97
2023-10-26T04:39:26.570Z,36.95
2023-10-26T04:44:28.924Z,30.42
2023-10-26T04:49:31.209Z,38.47
2023-10-26T04:54:33.467Z,39.20
2023-10-26T04:59:35.843Z,36.60
2023-10-26T05:04:38.079Z,37.97
2023-10-26T05:09:40.406Z,38.08
2023-10-26T05:14:43.059Z,29.85
2023-10-26T05:19:45.491Z,49.70
2023-10-26T05:24:47.842Z,32.00
2023-10-26T05:29:50.036Z,43.88
2023-10-26T05:34:52.338Z,43.17
2023-10-26T05:39:54.597Z,38.70
2023-10-26T05:44:57.911Z,45.35
2023-10-26T05:50:00.183Z,41.30
2023-10-26T05:55:02.558Z,44.90
2023-10-26T06:00:08.356Z,46.03
2023-10-26T06:05:10.720Z,46.70
2023-10-26T06:10:13.502Z,42.63
2023-10-26T06:15:15.911Z,25.92
2023-10-26T06:20:18.470Z,31.38
2023-10-26T06:25:20.728Z,22.05
2023-10-26T06:30:25.227Z,25.92
2023-10-26T06:35:27.681Z,25.63
2023-10-26T06:40:29.931Z,28.40
2023-10-26T06:45:32.564Z,21.35
2023-10-26T06:50:35.020Z,30.58
2023-10-26T06:55:37.415Z,29.70
2023-10-26T07:00:39.679Z,40.20
2023-10-26T07:05:42.639Z,31.70
2023-10-26T07:10:45.060Z,21.83
2023-10-26T07:15:47.445Z,25.20
2023-10-26T07:20:50.639Z,30.83
2023-10-26T07:25:52.892Z,43.72
2023-10-26T07:30:55.148Z,36.88
2023-10-26T07:36:00.807Z,25.63
2023-10-26T07:41:04.916Z,26.27
2023-10-26T07:46:07.450Z,30.70
2023-10-26T07:51:09.876Z,32.72
2023-10-26T07:56:12.119Z,35.40
2023-10-26T08:01:14.368Z,33.83
2023-10-26T08:06:16.652Z,24.70
2023-10-26T08:11:18.992Z,24.70
2023-10-26T08:16:39.927Z,30.83
2023-10-26T08:21:44.109Z,18.92
2023-10-26T08:26:46.415Z,27.40
2023-10-26T08:31:48.986Z,26.42
2023-10-26T08:37:11.793Z,24.73
2023-10-26T08:42:16.747Z,30.70
2023-10-26T08:47:22.880Z,40.65
2023-10-26T08:52:26.372Z,26.25
2023-10-26T08:57:28.629Z,18.75
2023-10-26T09:02:30.967Z,33.88
2023-10-26T09:07:33.481Z,36.75
2023-10-26T09:12:35.901Z,28.80
2023-10-26T09:17:38.355Z,18.70
2023-10-26T09:22:41.764Z,26.48
2023-10-26T09:27:45.502Z,32.15
2023-10-26T09:32:47.893Z,23.65
2023-10-26T09:37:53.407Z,30.45
2023-10-26T09:42:59.031Z,27.38
2023-10-26T09:48:04.369Z,23.20
2023-10-26T09:53:07.779Z,25.02
2023-10-26T09:58:12.261Z,26.13
2023-10-26T10:03:18.450Z,28.98
2023-10-26T10:08:57.782Z,29.10
2023-10-26T10:14:00.086Z,27.00
2023-10-26T10:19:22.527Z,26.58
2023-10-26T10:24:47.974Z,26.45
2023-10-26T10:29:50.323Z,23.35
2023-10-26T10:34:53.340Z,22.33
2023-10-26T10:40:18.483Z,20.77
2023-10-26T10:45:20.985Z,16.55
2023-10-26T10:50:25.432Z,17.63
2023-10-26T10:55:29.297Z,18.13
2023-10-26T11:00:50.155Z,15.32
2023-10-26T11:05:52.515Z,20.88
2023-10-26T11:10:55.879Z,25.20
2023-10-26T11:15:58.208Z,24.55
2023-10-26T11:21:02.592Z,18.17
2023-10-26T11:26:17.120Z,16.02
2023-10-26T11:31:43.887Z,20.77
2023-10-26T11:36:46.713Z,16.17
2023-10-26T11:41:58.406Z,14.43
2023-10-26T11:47:02.059Z,19.77
2023-10-26T11:52:04.694Z,11.27
2023-10-26T11:57:07.040Z,19.00
2023-10-26T12:02:09.474Z,15.18
2023-10-26T12:07:11.723Z,16.92
2023-10-26T12:12:16.861Z,14.88
2023-10-26T12:17:19.070Z,16.50
2023-10-26T12:22:21.436Z,13.30
2023-10-26T12:27:25.123Z,17.30
2023-10-26T12:32:27.365Z,20.50
2023-10-26T12:37:29.882Z,21.23
2023-10-26T12:42:32.249Z,21.27
2023-10-26T12:47:34.562Z,13.00
2023-10-26T12:52:36.802Z,17.23
2023-10-26T12:57:38.995Z,13.80
2023-10-26T13:02:41.272Z,16.58
2023-10-26T13:07:43.571Z,18.80
2023-10-26T13:12:48.622Z,13.52
2023-10-26T13:17:51.168Z,14.88
2023-10-26T13:22:54.394Z,14.02
2023-10-26T13:27:56.945Z,18.70
2023-10-26T13:32:59.930Z,17.15
2023-10-26T13:38:02.428Z,14.50
2023-10-26T13:43:04.937Z,18.42
2023-10-26T13:48:07.207Z,16.30
2023-10-26T13:53:09.737Z,15.10
2023-10-26T13:58:11.963Z,16.60
2023-10-26T14:03:14.332Z,15.65
2023-10-26T14:08:16.648Z,24.73
2023-10-26T14:13:19.215Z,14.05
2023-10-26T14:18:21.527Z,17.52
2023-10-26T14:23:24.523Z,13.63
2023-10-26T14:28:26.865Z,12.30
2023-10-26T14:33:29.410Z,19.50
2023-10-26T14:38:31.906Z,22.95
2023-10-26T14:43:34.209Z,20.17
2023-10-26T14:48:36.961Z,21.45
2023-10-26T14:53:39.500Z,15.95
2023-10-26T14:58:41.751Z,18.48
2023-10-26T15:03:44.156Z,10.65
2023-10-26T15:08:46.497Z,16.63
2023-10-26T15:13:48.737Z,21.05
2023-10-26T15:18:51.044Z,22.50
2023-10-26T15:23:53.286Z,20.42
2023-10-26T15:28:55.927Z,18.08
2023-10-26T15:34:00.106Z,21.35
2023-10-26T15:39:02.531Z,16.08
2023-10-26T15:44:04.943Z,20.02
2023-10-26T15:49:33.793Z,22.33
2023-10-26T15:54:30.108Z,23.73
2023-10-26T15:59:33.596Z,17.60
2023-10-26T16:04:36.304Z,21.75
2023-10-26T16:09:39.253Z,21.20
2023-10-26T16:14:41.560Z,31.65
2023-10-26T16:19:43.952Z,24.65
2023-10-26T16:24:47.706Z,25.08
2023-10-26T16:29:51.772Z,29.02
2023-10-26T16:34:54.578Z,20.05
2023-10-26T16:39:57.010Z,16.75
2023-10-26T16:44:59.507Z,24.20
2023-10-26T16:50:02.091Z,26.60
2023-10-26T16:55:04.797Z,26.13
2023-10-26T17:00:08.356Z,19.25
2023-10-26T17:05:12.159Z,26.08
2023-10-26T17:10:14.498Z,22.30
2023-10-26T17:15:17.156Z,22.67
2023-10-26T17:20:20.197Z,31.60
2023-10-26T17:25:22.509Z,26.45
2023-10-26T17:30:24.828Z,21.75
2023-10-26T17:35:27.247Z,27.10
2023-10-26T17:40:29.459Z,20.90
2023-10-26T17:45:31.900Z,24.52
2023-10-26T17:50:38.991Z,27.30
2023-10-26T17:55:44.671Z,32.65
2023-10-26T18:00:46.927Z,26.63
2023-10-26T18:05:55.101Z,25.67
2023-10-26T18:10:57.658Z,36.43
2023-10-26T18:16:05.152Z,25.95
2023-10-26T18:21:09.283Z,32.25
2023-10-26T18:26:13.522Z,28.20
2023-10-26T18:31:17.747Z,38.25
2023-10-26T18:36:22.482Z,23.55
2023-10-26T18:41:26.065Z,33.53
2023-10-26T18:46:28.466Z,28.08
2023-10-26T18:51:30.891Z,29.27
2023-10-26T18:56:33.452Z,35.03
2023-10-26T19:01:36.046Z,31.65
2023-10-26T19:06:41.287Z,38.42
2023-10-26T19:11:44.090Z,32.05
2023-10-26T19:16:46.577Z,26.73
2023-10-26T19:21:48.795Z,24.95
2023-10-26T19:26:51.164Z,26.23
2023-10-26T19:31:53.413Z,25.75
2023-10-26T19:36:55.749Z,25.08
2023-10-26T19:41:58.037Z,19.65
2023-10-26T19:47:00.397Z,17.27
2023-10-26T19:52:02.685Z,19.98
2023-10-26T19:57:05.633Z,17.42
2023-10-26T20:02:09.177Z,17.60
2023-10-26T20:07:11.567Z,19.25
2023-10-26T20:12:13.843Z,23.40
2023-10-26T20:17:17.066Z,31.60
2023-10-26T20:22:19.328Z,18.02
2023-10-26T20:27:21.578Z,19.63
2023-10-26T20:32:23.944Z,18.67
2023-10-26T20:37:26.816Z,20.30
2023-10-26T20:42:29.028Z,32.15
2023-10-26T20:47:31.832Z,24.95
2023-10-26T20:52:34.043Z,33.45
2023-10-26T20:57:36.242Z,32.45
2023-10-26T21:02:40.771Z,31.95
2023-10-26T21:07:43.241Z,23.70
2023-10-26T21:12:45.598Z,25.85
2023-10-26T21:17:48.395Z,34.08
2023-10-26T21:22:50.661Z,23.75
2023-10-26T21:27:53.556Z,24.05
2023-10-26T21:32:55.834Z,22.02
2023-10-26T21:37:58.103Z,25.48
2023-10-26T21:43:00.391Z,25.75
2023-10-26T21:48:02.703Z,21.75
2023-10-26T21:53:05.203Z,21.35
2023-10-26T21:58:09.687Z,25.40
2023-10-26T22:03:11.914Z,25.05
2023-10-26T22:08:14.779Z,16.88
2023-10-26T22:13:16.989Z,21.60
2023-10-26T22:18:19.292Z,17.63
2023-10-26T22:23:21.562Z,29.15
2023-10-26T22:28:23.805Z,23.70
2023-10-26T22:33:26.006Z,19.77
2023-10-26T22:38:28.194Z,20.33
2023-10-26T22:43:30.330Z,22.50
2023-10-26T22:48:32.539Z,22.50
2023-10-26T22:53:35.179Z,23.33
2023-10-26T22:58:37.437Z,21.85
2023-10-26T23:03:39.584Z,21.63
2023-10-26T23:08:41.873Z,23.88
2023-10-26T23:13:44.086Z,24.38
2023-10-26T23:18:46.302Z,25.35
2023-10-26T23:23:48.672Z,24.95
2023-10-26T23:28:50.958Z,21.05
2023-10-26T23:33:53.605Z,16.90
2023-10-26T23:38:55.814Z,21.70
2023-10-26T23:43:57.983Z,24.73
2023-10-26T23:49:00.914Z,20.15
2023-10-26T23:54:03.333Z,20.25
2023-10-26T23:59:05.647Z,19.65
